createdAt,value
2023-05-25T00:01:17.205Z,101881.25
2023-05-25T00:03:45.970Z,101888.31
2023-05-25T00:06:15.473Z,101886.47
2023-05-25T00:08:43.224Z,101883.06
2023-05-25T00:11:12.433Z,101879.69
2023-05-25T00:13:40.370Z,101883.25
2023-05-25T00:16:08.621Z,101880.81
2023-05-25T00:18:37.975Z,101878.41
2023-05-25T00:21:07.302Z,101878.59
2023-05-25T00:23:35.069Z,101877.84
2023-05-25T00:26:04.306Z,101883.09
2023-05-25T00:28:33.397Z,101877.84
2023-05-25T00:31:01.139Z,101889.25
2023-05-25T00:33:28.904Z,101886.59
2023-05-25T00:35:57.366Z,101898.00
2023-05-25T00:38:25.220Z,101896.09
2023-05-25T00:40:57.287Z,101902.81
2023-05-25T00:43:24.972Z,101907.72
2023-05-25T00:45:54.469Z,101903.09
2023-05-25T00:48:22.629Z,101909.75
2023-05-25T00:50:51.890Z,101911.34
2023-05-25T00:53:19.581Z,101912.19
2023-05-25T00:55:51.851Z,101910.44
2023-05-25T00:58:22.156Z,101901.25
2023-05-25T01:00:50.568Z,101914.50
2023-05-25T01:03:22.014Z,101911.94
2023-05-25T01:05:51.833Z,101909.53
2023-05-25T01:08:21.877Z,101907.16
2023-05-25T01:10:50.592Z,101908.63
2023-05-25T01:13:19.548Z,101903.72
2023-05-25T01:15:47.917Z,101907.34
2023-05-25T01:18:16.025Z,101907.59
2023-05-25T01:20:57.103Z,101916.38
2023-05-25T01:23:29.128Z,101902.53
2023-05-25T01:26:02.387Z,101907.78
2023-05-25T01:28:32.256Z,101913.03
2023-05-25T01:31:00.176Z,101906.91
2023-05-25T01:33:28.782Z,101916.53
2023-05-25T01:35:57.930Z,101914.81
2023-05-25T01:38:25.628Z,101912.94
2023-05-25T01:40:53.382Z,101919.91
2023-05-25T01:43:21.201Z,101912.81
2023-05-25T01:45:49.253Z,101911.03
2023-05-25T01:48:22.370Z,101904.25
2023-05-25T01:50:54.768Z,101907.81
2023-05-25T01:53:25.352Z,101907.03
2023-05-25T01:55:57.446Z,101901.00
2023-05-25T01:58:26.015Z,101907.25
2023-05-25T02:00:54.079Z,101909.09
2023-05-25T02:03:22.650Z,101914.47
2023-05-25T02:05:50.535Z,101919.00
2023-05-25T02:08:18.246Z,101917.34
2023-05-25T02:10:47.312Z,101917.50
2023-05-25T02:13:15.511Z,101914.97
2023-05-25T02:15:43.466Z,101915.00
2023-05-25T02:18:11.424Z,101905.56
2023-05-25T02:20:39.202Z,101916.19
2023-05-25T02:23:07.191Z,101921.59
2023-05-25T02:25:34.914Z,101917.28
2023-05-25T02:28:04.820Z,101913.84
2023-05-25T02:30:32.571Z,101917.41
2023-05-25T02:33:02.366Z,101920.88
2023-05-25T02:35:30.110Z,101926.22
2023-05-25T02:37:57.786Z,101927.97
2023-05-25T02:40:25.781Z,101927.13
2023-05-25T02:42:53.554Z,101926.28
2023-05-25T02:45:22.692Z,101927.19
2023-05-25T02:47:50.547Z,101930.72
2023-05-25T02:50:18.338Z,101934.09
2023-05-25T02:52:46.733Z,101945.31
2023-05-25T02:55:14.629Z,101946.06
2023-05-25T02:57:42.399Z,101937.28
2023-05-25T03:00:12.210Z,101935.59
2023-05-25T03:02:41.348Z,101942.59
2023-05-25T03:05:09.376Z,101947.09
2023-05-25T03:07:37.127Z,101946.25
2023-05-25T03:10:05.447Z,101944.59
2023-05-25T03:12:33.176Z,101942.94
2023-05-25T03:15:00.910Z,101949.13
2023-05-25T03:17:28.736Z,101950.94
2023-05-25T03:19:57.957Z,101952.75
2023-05-25T03:22:26.639Z,101950.19
2023-05-25T03:24:54.355Z,101945.88
2023-05-25T03:27:22.073Z,101955.56
2023-05-25T03:29:50.094Z,101936.34
2023-05-25T03:32:17.837Z,101944.22
2023-05-25T03:34:45.625Z,101942.44
2023-05-25T03:37:14.703Z,101952.41
2023-05-25T03:39:42.418Z,101946.31
2023-05-25T03:42:10.132Z,101958.44
2023-05-25T03:44:39.821Z,101962.63
2023-05-25T03:47:08.753Z,101964.28
2023-05-25T03:49:36.442Z,101962.34
2023-05-25T03:52:04.489Z,101965.59
2023-05-25T03:54:34.081Z,101972.47
2023-05-25T03:57:03.450Z,101973.97
2023-05-25T03:59:31.800Z,101966.59
2023-05-25T04:01:59.508Z,101977.63
2023-05-25T04:04:28.289Z,101981.66
2023-05-25T04:06:56.056Z,101977.84
2023-05-25T04:09:23.911Z,101972.31
2023-05-25T04:11:53.127Z,101976.25
2023-05-25T04:14:21.495Z,101977.72
2023-05-25T04:16:49.217Z,101978.28
2023-05-25T04:19:17.009Z,101984.75
2023-05-25T04:21:44.703Z,101980.84
2023-05-25T04:24:12.484Z,101981.94
2023-05-25T04:26:41.495Z,101983.06
2023-05-25T04:29:10.886Z,101986.56
2023-05-25T04:31:39.219Z,101986.97
2023-05-25T04:34:09.630Z,101984.47
2023-05-25T04:36:38.952Z,101989.44
2023-05-25T04:39:07.353Z,101985.50
2023-05-25T04:41:35.143Z,101984.25
2023-05-25T04:44:09.856Z,101983.66
2023-05-25T04:46:39.555Z,101981.63
2023-05-25T04:49:08.316Z,101984.97
2023-05-25T04:51:37.042Z,101985.63
2023-05-25T04:54:05.000Z,101973.91
2023-05-25T04:56:32.715Z,101987.88
2023-05-25T04:59:00.552Z,101982.88
2023-05-25T05:01:29.189Z,102002.56
2023-05-25T05:03:58.593Z,102005.75
2023-05-25T05:06:26.356Z,102012.59
2023-05-25T05:08:54.026Z,102003.50
2023-05-25T05:11:23.504Z,101997.44
2023-05-25T05:13:51.315Z,102019.97
2023-05-25T05:16:19.096Z,102023.56
2023-05-25T05:18:46.909Z,102025.25
2023-05-25T05:21:16.052Z,102009.25
2023-05-25T05:23:44.231Z,102024.94
2023-05-25T05:26:15.129Z,102003.94
2023-05-25T05:28:42.959Z,102023.81
2023-05-25T05:31:12.235Z,102020.59
2023-05-25T05:33:40.458Z,102050.19
2023-05-25T05:36:09.030Z,102055.63
2023-05-25T05:38:40.337Z,102064.63
2023-05-25T05:41:13.386Z,102036.44
2023-05-25T05:43:42.384Z,102036.88
2023-05-25T05:46:10.597Z,102037.34
2023-05-25T05:48:38.589Z,102026.25
2023-05-25T05:51:06.949Z,102027.69
2023-05-25T05:53:35.426Z,102031.72
2023-05-25T05:56:04.694Z,102039.09
2023-05-25T05:58:32.623Z,102044.88
2023-05-25T06:01:01.479Z,102041.75
2023-05-25T06:03:29.388Z,102058.16
2023-05-25T06:05:57.213Z,102057.91
2023-05-25T06:08:25.186Z,102063.63
2023-05-25T06:10:52.983Z,102070.88
2023-05-25T06:13:22.041Z,102070.75
2023-05-25T06:15:49.766Z,102066.78
2023-05-25T06:18:17.493Z,102063.25
2023-05-25T06:20:45.718Z,102063.88
2023-05-25T06:23:14.153Z,102075.78
2023-05-25T06:25:42.087Z,102070.44
2023-05-25T06:28:10.296Z,102063.28
2023-05-25T06:30:39.384Z,102067.63
2023-05-25T06:33:08.606Z,102059.31
2023-05-25T06:35:36.425Z,102069.81
2023-05-25T06:38:04.557Z,102066.78
2023-05-25T06:40:32.396Z,102069.28
2023-05-25T06:43:00.103Z,102077.38
2023-05-25T06:45:27.824Z,102081.22
2023-05-25T06:47:57.521Z,102087.69
2023-05-25T06:50:25.392Z,102071.81
2023-05-25T06:52:53.119Z,102080.41
2023-05-25T06:55:20.838Z,102083.59
2023-05-25T06:57:48.538Z,102089.09
2023-05-25T07:00:17.592Z,102095.06
2023-05-25T07:02:45.505Z,102094.19
2023-05-25T07:05:14.681Z,102078.06
2023-05-25T07:07:42.489Z,102097.88
2023-05-25T07:10:10.616Z,102093.84
2023-05-25T07:12:38.318Z,102104.25
2023-05-25T07:15:07.127Z,102106.78
2023-05-25T07:17:36.439Z,102107.31
2023-05-25T07:20:06.265Z,102102.84
2023-05-25T07:22:35.824Z,102116.13
2023-05-25T07:25:03.572Z,102114.72
2023-05-25T07:27:33.877Z,102105.38
2023-05-25T07:30:01.700Z,102119.78
2023-05-25T07:32:29.451Z,102114.28
2023-05-25T07:34:57.231Z,102117.72
2023-05-25T07:37:25.129Z,102129.63
2023-05-25T07:39:54.191Z,102124.06
2023-05-25T07:42:21.945Z,102128.22
2023-05-25T07:44:49.955Z,102133.34
2023-05-25T07:47:17.791Z,102125.94
2023-05-25T07:49:45.474Z,102133.78
2023-05-25T07:52:13.332Z,102143.53
2023-05-25T07:54:41.064Z,102131.56
2023-05-25T07:57:10.197Z,102137.19
2023-05-25T07:59:38.054Z,102139.06
2023-05-25T08:02:06.710Z,102141.16
2023-05-25T08:04:35.610Z,102143.66
2023-05-25T08:07:03.762Z,102154.00
2023-05-25T08:09:31.532Z,102141.72
2023-05-25T08:12:15.021Z,102142.78
2023-05-25T08:14:49.109Z,102151.34
2023-05-25T08:17:16.913Z,102145.38
2023-05-25T08:19:44.665Z,102133.66
2023-05-25T08:22:12.407Z,102154.13
2023-05-25T08:24:40.112Z,102166.25
2023-05-25T08:27:07.874Z,102151.63
2023-05-25T08:29:35.618Z,102151.72
2023-05-25T08:32:04.877Z,102160.44
2023-05-25T08:34:32.722Z,102174.06
2023-05-25T08:37:00.669Z,102167.88
2023-05-25T08:39:28.405Z,102170.06
2023-05-25T08:41:56.156Z,102166.25
2023-05-25T08:44:23.929Z,102158.00
2023-05-25T08:46:51.904Z,102163.88
2023-05-25T08:49:22.186Z,102170.91
2023-05-25T08:51:51.778Z,102170.31
2023-05-25T08:54:21.204Z,102169.75
2023-05-25T08:56:52.099Z,102152.97
2023-05-25T08:59:30.932Z,102167.81
2023-05-25T09:02:05.489Z,102179.88
2023-05-25T09:04:35.945Z,102188.88
2023-05-25T09:07:10.509Z,102191.13
2023-05-25T09:09:39.648Z,102172.94
2023-05-25T09:12:08.336Z,102169.50
2023-05-25T09:14:37.600Z,102180.84
2023-05-25T09:17:06.026Z,102170.44
2023-05-25T09:19:36.640Z,102158.84
2023-05-25T09:22:14.819Z,102172.84
2023-05-25T09:24:44.662Z,102177.41
2023-05-25T09:27:14.351Z,102178.78
2023-05-25T09:29:42.240Z,102158.81
2023-05-25T09:32:10.279Z,102182.50
2023-05-25T09:34:39.859Z,102182.31
2023-05-25T09:37:12.929Z,102161.53
2023-05-25T09:39:41.438Z,102174.59
2023-05-25T09:42:09.773Z,102179.59
2023-05-25T09:44:37.580Z,102180.03
2023-05-25T09:47:05.880Z,102176.94
2023-05-25T09:49:33.988Z,102165.94
2023-05-25T09:52:03.373Z,102159.50
2023-05-25T09:54:31.394Z,102176.69
2023-05-25T09:56:59.515Z,102190.91
2023-05-25T09:59:27.901Z,102183.19
2023-05-25T10:01:56.027Z,102191.00
2023-05-25T10:04:23.946Z,102192.16
2023-05-25T10:06:52.792Z,102189.19
2023-05-25T10:09:21.958Z,102190.81
2023-05-25T10:11:51.636Z,102193.41
2023-05-25T10:14:28.002Z,102211.06
2023-05-25T10:16:59.652Z,102180.03
2023-05-25T10:19:32.145Z,102196.00
2023-05-25T10:22:05.582Z,102178.75
2023-05-25T10:24:36.649Z,102186.25
2023-05-25T10:27:18.446Z,102209.03
2023-05-25T10:29:53.912Z,102191.06
2023-05-25T10:32:21.737Z,102186.09
2023-05-25T10:34:49.999Z,102188.16
2023-05-25T10:37:18.341Z,102196.97
2023-05-25T10:39:47.478Z,102188.50
2023-05-25T10:42:15.222Z,102201.09
2023-05-25T10:44:43.531Z,102185.97
2023-05-25T10:47:11.789Z,102178.09
2023-05-25T10:49:53.575Z,102183.06
2023-05-25T10:52:21.506Z,102196.38
2023-05-25T10:54:50.767Z,102208.34
2023-05-25T10:57:22.662Z,102186.50
2023-05-25T10:59:51.586Z,102181.13
2023-05-25T11:02:23.436Z,102173.31
2023-05-25T11:04:51.715Z,102169.41
2023-05-25T11:07:22.974Z,102191.84
2023-05-25T11:09:59.537Z,102194.34
2023-05-25T11:12:27.916Z,102183.91
2023-05-25T11:15:15.223Z,102179.47
2023-05-25T11:17:47.951Z,102196.16
2023-05-25T11:20:28.698Z,102196.50
2023-05-25T11:22:58.861Z,102178.09
2023-05-25T11:25:41.693Z,102180.69
2023-05-25T11:28:11.919Z,102179.25
2023-05-25T11:30:41.850Z,102175.53
2023-05-25T11:33:10.113Z,102159.50
2023-05-25T11:35:41.553Z,102161.13
2023-05-25T11:38:09.442Z,102148.22
2023-05-25T11:40:40.320Z,102150.25
2023-05-25T11:43:09.779Z,102157.69
2023-05-25T11:45:39.292Z,102165.25
2023-05-25T11:48:07.442Z,102153.13
2023-05-25T11:50:35.244Z,102162.22
2023-05-25T11:53:06.143Z,102160.34
2023-05-25T11:55:33.969Z,102152.34
2023-05-25T11:58:01.756Z,102150.47
2023-05-25T12:00:31.488Z,102160.28
2023-05-25T12:02:59.553Z,102149.78
2023-05-25T12:05:27.424Z,102153.88
2023-05-25T12:07:55.144Z,102156.97
2023-05-25T12:10:22.828Z,102160.31
2023-05-25T12:12:51.846Z,102143.03
2023-05-25T12:15:22.600Z,102137.38
2023-05-25T12:17:52.418Z,102151.50
2023-05-25T12:20:21.096Z,102153.66
2023-05-25T12:22:49.182Z,102135.53
2023-05-25T12:25:20.878Z,102140.19
2023-05-25T12:27:48.656Z,102135.38
2023-05-25T12:30:16.813Z,102121.44
2023-05-25T12:33:02.252Z,102116.81
2023-05-25T12:35:32.187Z,102128.66
2023-05-25T12:38:12.447Z,102128.56
2023-05-25T12:40:40.167Z,102127.50
2023-05-25T12:43:07.964Z,102135.59
2023-05-25T12:45:40.814Z,102129.38
2023-05-25T12:48:10.161Z,102133.34
2023-05-25T12:50:37.968Z,102125.81
2023-05-25T12:53:06.134Z,102126.91
2023-05-25T12:55:36.312Z,102126.25
2023-05-25T12:58:05.962Z,102124.88
2023-05-25T13:00:34.644Z,102119.91
2023-05-25T13:03:02.607Z,102121.03
2023-05-25T13:05:34.012Z,102124.81
2023-05-25T13:08:03.094Z,102116.25
2023-05-25T13:10:32.585Z,102109.75
2023-05-25T13:13:00.952Z,102126.66
2023-05-25T13:15:29.271Z,102126.31
2023-05-25T13:17:58.390Z,102110.78
2023-05-25T13:20:27.467Z,102115.94
2023-05-25T13:22:56.700Z,102107.66
2023-05-25T13:25:27.147Z,102116.25
2023-05-25T13:27:56.912Z,102101.13
2023-05-25T13:30:24.753Z,102119.19
2023-05-25T13:32:52.891Z,102110.34
2023-05-25T13:35:34.117Z,102104.31
2023-05-25T13:38:03.744Z,102113.44
2023-05-25T13:40:31.873Z,102120.19
2023-05-25T13:42:59.679Z,102108.94
2023-05-25T13:45:27.527Z,102097.75
2023-05-25T13:47:55.391Z,102085.19
2023-05-25T13:50:23.277Z,102089.41
2023-05-25T13:52:51.059Z,102091.25
2023-05-25T13:55:20.172Z,102096.97
2023-05-25T13:57:47.947Z,102099.19
2023-05-25T14:00:16.153Z,102099.84
2023-05-25T14:02:43.980Z,102102.75
2023-05-25T14:05:11.830Z,102087.94
2023-05-25T14:07:41.267Z,102081.72
2023-05-25T14:10:09.942Z,102096.94
2023-05-25T14:12:39.376Z,102095.31
2023-05-25T14:15:08.811Z,102089.44
2023-05-25T14:17:36.616Z,102089.88
2023-05-25T14:20:05.296Z,102082.88
2023-05-25T14:22:33.128Z,102079.91
2023-05-25T14:25:00.903Z,102086.09
2023-05-25T14:27:28.856Z,102094.50
2023-05-25T14:29:57.887Z,102085.69
2023-05-25T14:32:25.708Z,102086.63
2023-05-25T14:34:53.486Z,102090.56
2023-05-25T14:37:21.189Z,102079.59
2023-05-25T14:39:48.895Z,102079.06
2023-05-25T14:42:16.727Z,102078.88
2023-05-25T14:44:44.480Z,102099.53
2023-05-25T14:47:13.625Z,102087.22
2023-05-25T14:49:41.431Z,102077.06
2023-05-25T14:52:09.147Z,102074.88
2023-05-25T14:54:37.112Z,102076.44
2023-05-25T14:57:05.001Z,102082.22
2023-05-25T14:59:32.663Z,102076.13
2023-05-25T15:02:00.425Z,102089.69
2023-05-25T15:04:30.844Z,102092.06
2023-05-25T15:06:59.074Z,102081.72
2023-05-25T15:09:27.185Z,102085.00
2023-05-25T15:11:55.045Z,102082.84
2023-05-25T15:14:22.841Z,102078.22
2023-05-25T15:16:50.645Z,102085.25
2023-05-25T15:19:18.466Z,102076.47
2023-05-25T15:21:47.562Z,102076.81
2023-05-25T15:24:16.744Z,102084.56
2023-05-25T15:26:44.684Z,102097.69
2023-05-25T15:29:12.419Z,102085.81
2023-05-25T15:31:40.239Z,102085.13
2023-05-25T15:34:09.123Z,102068.75
2023-05-25T15:36:36.848Z,102085.41
2023-05-25T15:39:08.852Z,102082.47
2023-05-25T15:41:36.641Z,102074.06
2023-05-25T15:44:08.191Z,102059.03
2023-05-25T15:46:36.238Z,102067.91
2023-05-25T15:49:10.695Z,102082.75
2023-05-25T15:51:41.607Z,102076.53
2023-05-25T15:54:14.688Z,102089.06
2023-05-25T15:56:43.301Z,102074.31
2023-05-25T15:59:12.233Z,102085.13
2023-05-25T16:01:40.365Z,102081.38
2023-05-25T16:04:08.286Z,102084.34
2023-05-25T16:06:36.336Z,102082.03
2023-05-25T16:09:04.388Z,102087.88
2023-05-25T16:11:34.168Z,102086.88
2023-05-25T16:14:01.925Z,102084.44
2023-05-25T16:16:29.756Z,102086.41
2023-05-25T16:18:57.654Z,102084.97
2023-05-25T16:21:25.791Z,102086.50
2023-05-25T16:23:53.544Z,102082.81
2023-05-25T16:26:22.489Z,102084.56
2023-05-25T16:28:51.622Z,102098.59
2023-05-25T16:31:19.435Z,102085.94
2023-05-25T16:33:47.395Z,102078.78
2023-05-25T16:36:15.130Z,102081.63
2023-05-25T16:38:44.000Z,102083.56
2023-05-25T16:41:12.087Z,102085.97
2023-05-25T16:43:39.909Z,102082.00
2023-05-25T16:46:09.079Z,102084.88
2023-05-25T16:48:36.868Z,102079.28
2023-05-25T16:51:04.886Z,102091.28
2023-05-25T16:53:32.582Z,102093.06
2023-05-25T16:56:00.299Z,102100.97
2023-05-25T16:58:28.013Z,102092.56
2023-05-25T17:00:55.716Z,102086.66
2023-05-25T17:03:24.968Z,102092.25
2023-05-25T17:05:53.915Z,102094.50
2023-05-25T17:08:21.719Z,102091.06
2023-05-25T17:10:50.012Z,102102.28
2023-05-25T17:13:17.759Z,102094.84
2023-05-25T17:15:46.036Z,102092.34
2023-05-25T17:18:15.797Z,102096.88
2023-05-25T17:20:45.252Z,102089.63
2023-05-25T17:23:13.072Z,102089.94
2023-05-25T17:25:40.861Z,102100.31
2023-05-25T17:28:08.817Z,102099.75
2023-05-25T17:30:36.566Z,102091.72
2023-05-25T17:33:04.429Z,102102.69
2023-05-25T17:35:32.314Z,102098.94
2023-05-25T17:38:01.455Z,102107.34
2023-05-25T17:40:29.234Z,102099.13
2023-05-25T17:42:56.963Z,102108.81
2023-05-25T17:45:24.730Z,102106.16
2023-05-25T17:47:52.419Z,102105.31
2023-05-25T17:50:20.187Z,102103.84
2023-05-25T17:52:47.931Z,102111.03
2023-05-25T17:55:17.132Z,102107.28
2023-05-25T17:57:44.850Z,102109.41
2023-05-25T18:00:14.430Z,102109.47
2023-05-25T18:02:42.349Z,102101.91
2023-05-25T18:05:10.258Z,102119.94
2023-05-25T18:07:38.083Z,102110.56
2023-05-25T18:10:06.597Z,102131.59
2023-05-25T18:12:35.747Z,102122.59
2023-05-25T18:15:03.747Z,102109.22
2023-05-25T18:17:31.465Z,102115.22
2023-05-25T18:19:59.582Z,102108.47
2023-05-25T18:22:27.268Z,102108.88
2023-05-25T18:24:54.987Z,102110.28
2023-05-25T18:27:22.747Z,102110.88
2023-05-25T18:29:51.868Z,102117.22
2023-05-25T18:32:19.610Z,102107.81
2023-05-25T18:34:48.294Z,102125.75
2023-05-25T18:37:16.046Z,102115.75
2023-05-25T18:39:43.768Z,102120.16
2023-05-25T18:42:11.794Z,102129.03
2023-05-25T18:44:40.129Z,102129.97
2023-05-25T18:47:09.326Z,102127.53
2023-05-25T18:49:38.031Z,102125.94
2023-05-25T18:52:06.556Z,102133.25
2023-05-25T18:54:34.239Z,102129.31
2023-05-25T18:57:03.052Z,102139.00
2023-05-25T18:59:31.499Z,102139.94
2023-05-25T19:01:59.244Z,102133.72
2023-05-25T19:04:28.381Z,102142.94
2023-05-25T19:06:56.127Z,102137.53
2023-05-25T19:09:23.811Z,102145.88
2023-05-25T19:11:51.555Z,102144.81
2023-05-25T19:14:19.261Z,102140.00
2023-05-25T19:16:48.687Z,102142.47
2023-05-25T19:19:16.838Z,102150.44
2023-05-25T19:21:46.085Z,102157.59
2023-05-25T19:24:13.844Z,102148.69
2023-05-25T19:26:41.780Z,102148.75
2023-05-25T19:29:09.540Z,102143.91
2023-05-25T19:31:37.326Z,102153.81
2023-05-25T19:34:05.075Z,102149.53
2023-05-25T19:36:33.364Z,102158.13
2023-05-25T19:39:02.455Z,102154.81
2023-05-25T19:41:30.254Z,102161.75
2023-05-25T19:43:58.005Z,102166.44
2023-05-25T19:46:25.830Z,102168.81
2023-05-25T19:48:53.575Z,102175.34
2023-05-25T19:51:21.679Z,102170.97
2023-05-25T19:53:51.395Z,102181.63
2023-05-25T19:56:21.198Z,102175.38
2023-05-25T19:58:48.994Z,102195.00
2023-05-25T20:01:16.790Z,102184.38
2023-05-25T20:03:44.771Z,102190.22
2023-05-25T20:06:13.064Z,102198.03
2023-05-25T20:08:40.825Z,102195.25
2023-05-25T20:11:08.528Z,102197.88
2023-05-25T20:13:37.586Z,102199.09
2023-05-25T20:16:05.566Z,102213.50
2023-05-25T20:18:33.283Z,102202.47
2023-05-25T20:21:00.996Z,102215.09
2023-05-25T20:23:28.720Z,102204.00
2023-05-25T20:25:56.493Z,102214.63
2023-05-25T20:28:24.271Z,102209.25
2023-05-25T20:30:53.497Z,102212.28
2023-05-25T20:33:21.589Z,102222.56
2023-05-25T20:35:49.389Z,102217.75
2023-05-25T20:38:17.109Z,102211.00
2023-05-25T20:40:44.802Z,102211.94
2023-05-25T20:43:12.578Z,102211.56
2023-05-25T20:45:41.324Z,102221.53
2023-05-25T20:48:10.593Z,102228.72
2023-05-25T20:50:38.302Z,102216.53
2023-05-25T20:53:06.093Z,102221.59
2023-05-25T20:55:33.847Z,102217.19
2023-05-25T20:58:01.846Z,102228.72
2023-05-25T21:00:29.592Z,102228.53
2023-05-25T21:02:57.465Z,102227.41
2023-05-25T21:05:26.777Z,102227.03
2023-05-25T21:07:54.518Z,102236.31
2023-05-25T21:10:22.273Z,102232.38
2023-05-25T21:12:50.008Z,102227.50
2023-05-25T21:15:17.773Z,102238.84
2023-05-25T21:17:45.564Z,102230.84
2023-05-25T21:20:13.401Z,102238.44
2023-05-25T21:22:42.667Z,102226.59
2023-05-25T21:25:11.255Z,102232.44
2023-05-25T21:27:38.996Z,102229.34
2023-05-25T21:30:07.922Z,102228.63
2023-05-25T21:32:35.742Z,102240.91
2023-05-25T21:35:03.456Z,102248.41
2023-05-25T21:37:31.184Z,102241.00
2023-05-25T21:40:00.625Z,102249.47
2023-05-25T21:42:28.380Z,102247.47
2023-05-25T21:44:56.217Z,102246.16
2023-05-25T21:47:24.064Z,102251.63
2023-05-25T21:49:51.840Z,102253.81
2023-05-25T21:52:19.754Z,102259.22
2023-05-25T21:54:47.508Z,102252.94
2023-05-25T21:57:16.685Z,102251.91
2023-05-25T21:59:44.413Z,102252.41
2023-05-25T22:02:12.179Z,102250.59
2023-05-25T22:04:39.953Z,102247.19
2023-05-25T22:07:07.708Z,102256.09
2023-05-25T22:09:35.390Z,102245.28
2023-05-25T22:12:03.230Z,102257.94
2023-05-25T22:14:32.262Z,102256.16
2023-05-25T22:16:59.981Z,102248.69
2023-05-25T22:19:27.730Z,102246.50
2023-05-25T22:21:55.486Z,102250.41
2023-05-25T22:24:23.335Z,102250.09
2023-05-25T22:26:51.042Z,102245.94
2023-05-25T22:29:18.715Z,102246.72
2023-05-25T22:31:47.836Z,102242.66
2023-05-25T22:34:15.588Z,102247.69
2023-05-25T22:36:43.390Z,102237.06
2023-05-25T22:39:11.223Z,102238.59
2023-05-25T22:41:38.960Z,102242.31
2023-05-25T22:44:06.772Z,102233.38
2023-05-25T22:46:34.557Z,102235.31
2023-05-25T22:49:03.701Z,102236.31
2023-05-25T22:51:31.540Z,102243.25
2023-05-25T22:53:59.322Z,102248.31
2023-05-25T22:56:27.650Z,102234.81
2023-05-25T22:58:55.376Z,102239.69
2023-05-25T23:01:23.222Z,102245.97
2023-05-25T23:03:51.038Z,102245.94
2023-05-25T23:06:20.944Z,102228.94
2023-05-25T23:08:48.695Z,102243.13
2023-05-25T23:11:16.395Z,102238.56
2023-05-25T23:13:44.066Z,102232.34
2023-05-25T23:16:15.140Z,102228.81
2023-05-25T23:18:43.229Z,102232.09
2023-05-25T23:21:11.032Z,102239.13
2023-05-25T23:23:40.141Z,102231.81
2023-05-25T23:26:07.964Z,102228.13
2023-05-25T23:28:35.795Z,102243.47
2023-05-25T23:31:03.574Z,102234.59
2023-05-25T23:33:31.326Z,102234.47
2023-05-25T23:36:00.404Z,102231.06
2023-05-25T23:38:28.106Z,102237.91
2023-05-25T23:40:57.178Z,102234.66
2023-05-25T23:43:25.274Z,102233.00
2023-05-25T23:45:53.038Z,102236.56
2023-05-25T23:48:20.817Z,102244.25
2023-05-25T23:50:48.538Z,102246.94
2023-05-25T23:53:16.341Z,102233.44
2023-05-25T23:55:44.270Z,102247.84
2023-05-25T23:58:13.448Z,102247.88
